sensor_id;sensor_type;location;lat;lon;timestamp;pressure;altitude;pressure_sealevel;temperature;humidity
55014;BME280;40916;51.632;5.552;2022-09-09T00:01:00;1004.0057698303982;;;13.155691757859906;0
55014;BME280;40916;51.632;5.552;2022-09-09T00:01:58;1003.9872674351075;;;13.155691757859906;0
55014;BME280;40916;51.632;5.552;2022-09-09T00:02:59;1003.9115271568079;;;13.13571923541392;0
55014;BME280;40916;51.632;5.552;2022-09-09T00:03:59;1003.9775518952996;;;13.129060961286687;0
55014;BME280;40916;51.632;5.552;2022-09-09T00:04:58;1003.9923529546172;;;13.129060961286687;0
55014;BME280;40916;51.632;5.552;2022-09-09T00:05:59;1003.9339238655829;;;13.095763835582215;0
55014;BME280;40916;51.632;5.552;2022-09-09T00:07:00;1003.990012742504;;;13.102424028453196;0
55014;BME280;40916;51.632;5.552;2022-09-09T00:07:58;1004.0005238093091;;;13.095763835582215;0
55014;BME280;40916;51.632;5.552;2022-09-09T00:09:00;1003.9962332277845;;;13.089103258613434;0
55014;BME280;40916;51.632;5.552;2022-09-09T00:09:59;1003.9420591731277;;;13.062457107430458;0
55014;BME280;40916;51.632;5.552;2022-09-09T00:10:58;1003.8668700336937;;;13.049131724222015;0
55014;BME280;40916;51.632;5.552;2022-09-09T00:12:00;1004.0049545768392;;;13.062457107430458;0
55014;BME280;40916;51.632;5.552;2022-09-09T00:13:00;1003.8804672819697;;;13.035804801357529;0
55014;BME280;40916;51.632;5.552;2022-09-09T00:13:58;1003.9069656387696;;;13.042468455305166;0
55014;BME280;40916;51.632;5.552;2022-09-09T00:14:59;1003.9957552805009;;;13.042468455305166;0
55014;BME280;40916;51.632;5.552;2022-09-09T00:15:59;1003.903941275264;;;13.00914633292166;0
55014;BME280;40916;51.632;5.552;2022-09-09T00:17:00;1003.952032176337;;;13.00914633292166;0
55014;BME280;40916;51.632;5.552;2022-09-09T00:18:01;1003.9298363733103;;;13.00914633292166;0
55014;BME280;40916;51.632;5.552;2022-09-09T00:19:00;1003.9199533082719;;;13.022476337902496;0
55014;BME280;40916;51.632;5.552;2022-09-09T00:19:59;1003.9205583947543;;;13.029140762262266;0
55014;BME280;40916;51.632;5.552;2022-09-09T00:21:01;1003.8995665050933;;;13.042468455305166;0
55014;BME280;40916;51.632;5.552;2022-09-09T00:22:02;1003.8847682391877;;;13.042468455305166;0
55014;BME280;40916;51.632;5.552;2022-09-09T00:23:00;1003.8582702086085;;;13.035804801357529;0
55014;BME280;40916;51.632;5.552;2022-09-09T00:23:59;1003.8422657909266;;;13.022476337902496;0
55014;BME280;40916;51.632;5.552;2022-09-09T00:25:02;1003.8558503945637;;;13.00914633292166;0
55014;BME280;40916;51.632;5.552;2022-09-09T00:26:02;1003.8250376406627;;;12.995814785479006;0
55014;BME280;40916;51.632;5.552;2022-09-09T00:27:00;1003.798532170135;;;12.989148433041784;0
55014;BME280;40916;51.632;5.552;2022-09-09T00:28:00;1003.8780461831246;;;13.00914633292166;0
55014;BME280;40916;51.632;5.552;2022-09-09T00:29:00;1003.8768263080457;;;12.995814785479006;0
55014;BME280;40916;51.632;5.552;2022-09-09T00:30:12;1003.9169045612437;;;12.989148433041784;0
55014;BME280;40916;51.632;5.552;2022-09-09T00:31:01;1003.8293623235977;;;12.962479162452478;0
55014;BME280;40916;51.632;5.552;2022-09-09T00:32:05;1003.8829983809543;;;12.982481694637762;0
55014;BME280;40916;51.632;5.552;2022-09-09T00:33:01;1003.8194993832562;;;12.97581457014972;0
55014;BME280;40916;51.632;5.552;2022-09-09T00:34:03;1003.8521740318529;;;12.969147059460393;0
55014;BME280;40916;51.632;5.552;2022-09-09T00:35:02;1003.8139474414904;;;12.955810879008613;0
55014;BME280;40916;51.632;5.552;2022-09-09T00:36:00;1003.7270102745756;;;12.935803708887033;0
55014;BME280;40916;51.632;5.552;2022-09-09T00:37:01;1003.8330197076723;;;12.922463661139204;0
55014;BME280;40916;51.632;5.552;2022-09-09T00:38:01;1003.8336470132207;;;12.929133878524844;0
55014;BME280;40916;51.632;5.552;2022-09-09T00:39:01;1003.7769126453803;;;12.915793056612472;0
55014;BME280;40916;51.632;5.552;2022-09-09T00:40:02;1003.7645565305593;;;12.90245068566491;0
55014;BME280;40916;51.632;5.552;2022-09-09T00:41:03;1003.84167017665;;;12.935803708887033;0
55014;BME280;40916;51.632;5.552;2022-09-09T00:42:04;1003.7824908578922;;;12.935803708887033;0
55014;BME280;40916;51.632;5.552;2022-09-09T00:43:07;1003.7942105771422;;;12.942473152343368;0
55014;BME280;40916;51.632;5.552;2022-09-09T00:44:02;1003.7979093375916;;;12.942473152343368;0
55014;BME280;40916;51.632;5.552;2022-09-09T00:45:03;1003.8108677142818;;;12.962479162452478;0
55014;BME280;40916;51.632;5.552;2022-09-09T00:47:04;1003.7775774251064;;;12.962479162452478;0
55014;BME280;40916;51.632;5.552;2022-09-09T00:47:09;1003.7461267022671;;;12.942473152343368;0
55014;BME280;40916;51.632;5.552;2022-09-09T00:48:02;1003.7257925502378;;;12.962479162452478;0
55014;BME280;40916;51.632;5.552;2022-09-09T00:49:04;1003.6826258274448;;;12.935803708887033;0
55014;BME280;40916;51.632;5.552;2022-09-09T00:50:03;1003.6715297183734;;;12.935803708887033;0
55014;BME280;40916;51.632;5.552;2022-09-09T00:51:03;1003.6869465765336;;;12.942473152343368;0
55014;BME280;40916;51.632;5.552;2022-09-09T00:52:04;1003.6869465765336;;;12.942473152343368;0
55014;BME280;40916;51.632;5.552;2022-09-09T00:53:05;1003.6752284212768;;;12.935803708887033;0
55014;BME280;40916;51.632;5.552;2022-09-09T00:54:07;1003.6715297183734;;;12.935803708887033;0
55014;BME280;40916;51.632;5.552;2022-09-09T00:55:05;1003.6974206412269;;;12.935803708887033;0
55014;BME280;40916;51.632;5.552;2022-09-09T00:56:06;1003.6678310155908;;;12.935803708887033;0
55014;BME280;40916;51.632;5.552;2022-09-09T00:57:05;1003.6487144351954;;;12.929133878524844;0
55014;BME280;40916;51.632;5.552;2022-09-09T00:58:06;1003.5704193405397;;;12.922463661139204;0
55014;BME280;40916;51.632;5.552;2022-09-09T00:59:04;1003.6129206702902;;;12.90245068566491;0
55014;BME280;40916;51.632;5.552;2022-09-09T01:00:16;1003.614176755073;;;12.915793056612472;0
55014;BME280;40916;51.632;5.552;2022-09-09T01:01:04;1003.5228985574165;;;12.88910676474006;0
55014;BME280;40916;51.632;5.552;2022-09-09T01:02:04;1003.5450884980575;;;12.88910676474006;0
55014;BME280;40916;51.632;5.552;2022-09-09T01:03:08;1003.5568146084191;;;12.895778919008556;0
55014;BME280;40916;51.632;5.552;2022-09-09T01:04:04;1003.5727715085743;;;12.869087975082646;0
55014;BME280;40916;51.632;5.552;2022-09-09T01:05:05;1003.5253307792843;;;12.87576129289506;0
55014;BME280;40916;51.632;5.552;2022-09-09T01:06:12;1003.5579788536179;;;12.869087975082646;0
55014;BME280;40916;51.632;5.552;2022-09-09T01:07:06;1003.5018697824778;;;12.862414269186278;0
55014;BME280;40916;51.632;5.552;2022-09-09T01:08:06;1003.4772539813102;;;12.87576129289506;0
55014;BME280;40916;51.632;5.552;2022-09-09T01:09:07;1003.5216325633327;;;12.87576129289506;0
55014;BME280;40916;51.632;5.552;2022-09-09T01:10:05;1003.5068397007309;;;12.87576129289506;0
55014;BME280;40916;51.632;5.552;2022-09-09T01:11:05;1003.5598817942277;;;12.88910676474006;0
55014;BME280;40916;51.632;5.552;2022-09-09T01:12:07;1003.5438218608497;;;12.87576129289506;0
55014;BME280;40916;51.632;5.552;2022-09-09T01:13:05;1003.5882004688953;;;12.87576129289506;0
55014;BME280;40916;51.632;5.552;2022-09-09T01:14:10;1003.5197218623059;;;12.855740175087874;0
55014;BME280;40916;51.632;5.552;2022-09-09T01:15:08;1003.5832281896153;;;12.862414269186278;0
55014;BME280;40916;51.632;5.552;2022-09-09T01:16:07;1003.604135903874;;;12.84906569266932;0
55014;BME280;40916;51.632;5.552;2022-09-09T01:17:07;1003.5473802589357;;;12.835715562399027;0
55014;BME280;40916;51.632;5.552;2022-09-09T01:18:05;1003.5732655284523;;;12.835715562399027;0
55014;BME280;40916;51.632;5.552;2022-09-09T01:19:05;1003.5756707187014;;;12.822363877429467;0
55014;BME280;40916;51.632;5.552;2022-09-09T01:20:06;1003.5843592171949;;;12.835715562399027;0
55014;BME280;40916;51.632;5.552;2022-09-09T01:21:07;1003.6287339830062;;;12.835715562399027;0
55014;BME280;40916;51.632;5.552;2022-09-09T01:22:07;1003.5652243263173;;;12.829039914310808;0
55014;BME280;40916;51.632;5.552;2022-09-09T01:23:10;1003.6022027544448;;;12.829039914310808;0
55014;BME280;40916;51.632;5.552;2022-09-09T01:24:15;1003.633076692867;;;12.842390821812444;0
55014;BME280;40916;51.632;5.552;2022-09-09T01:25:11;1003.6115319126202;;;12.84906569266932;0
55014;BME280;40916;51.632;5.552;2022-09-09T01:26:11;1003.5978574545903;;;12.822363877429467;0
55014;BME280;40916;51.632;5.552;2022-09-09T01:27:06;1003.6274397758544;;;12.822363877429467;0
55014;BME280;40916;51.632;5.552;2022-09-09T01:28:08;1003.5854648022837;;;12.809010636813948;0
55014;BME280;40916;51.632;5.552;2022-09-09T01:29:07;1003.5397883703381;;;12.795655839605004;0
55014;BME280;40916;51.632;5.552;2022-09-09T01:30:08;1003.5619738127087;;;12.795655839605004;0
55014;BME280;40916;51.632;5.552;2022-09-09T01:31:06;1003.5391338944769;;;12.788977856981703;0
55014;BME280;40916;51.632;5.552;2022-09-09T01:32:37;1003.5804616846627;;;12.795655839605004;0
55014;BME280;40916;51.632;5.552;2022-09-09T01:33:07;1003.5582762386792;;;12.795655839605004;0
55014;BME280;40916;51.632;5.552;2022-09-09T01:34:09;1003.5152088647048;;;12.809010636813948;0
55014;BME280;40916;51.632;5.552;2022-09-09T01:35:08;1003.5447903068069;;;12.809010636813948;0
55014;BME280;40916;51.632;5.552;2022-09-09T01:36:08;1003.5410926261226;;;12.809010636813948;0
55014;BME280;40916;51.632;5.552;2022-09-09T01:37:07;1003.5152088647048;;;12.809010636813948;0
55014;BME280;40916;51.632;5.552;2022-09-09T01:38:07;1003.5349950475003;;;12.822363877429467;0
55014;BME280;40916;51.632;5.552;2022-09-09T01:39:07;1003.4603922824361;;;12.815687451636652;0
55014;BME280;40916;51.632;5.552;2022-09-09T01:40:07;1003.5041158259038;;;12.809010636813948;0
55014;BME280;40916;51.632;5.552;2022-09-09T01:41:08;1003.4227669078189;;;12.809010636813948;0
55014;BME280;40916;51.632;5.552;2022-09-09T01:42:09;1003.5528356100352;;;12.815687451636652;0
55014;BME280;40916;51.632;5.552;2022-09-09T01:43:08;1003.4980171772376;;;12.822363877429467;0
55014;BME280;40916;51.632;5.552;2022-09-09T01:44:08;1003.4345081641984;;;12.815687451636652;0
55014;BME280;40916;51.632;5.552;2022-09-09T01:45:08;1003.5054127503264;;;12.822363877429467;0
55014;BME280;40916;51.632;5.552;2022-09-09T01:46:08;1003.5147423031274;;;12.842390821812444;0
55014;BME280;40916;51.632;5.552;2022-09-09T01:47:08;1003.4499459639032;;;12.822363877429467;0
55014;BME280;40916;51.632;5.552;2022-09-09T01:48:08;1003.4357999227288;;;12.829039914310808;0
55014;BME280;40916;51.632;5.552;2022-09-09T01:49:08;1003.4536437488216;;;12.822363877429467;0
55014;BME280;40916;51.632;5.552;2022-09-09T01:50:09;1003.4758304608614;;;12.822363877429467;0
55014;BME280;40916;51.632;5.552;2022-09-09T01:51:09;1003.4247064092871;;;12.829039914310808;0
55014;BME280;40916;51.632;5.552;2022-09-09T01:52:09;1003.361199161997;;;12.822363877429467;0
55014;BME280;40916;51.632;5.552;2022-09-09T01:53:09;1003.4599138296311;;;12.84906569266932;0
55014;BME280;40916;51.632;5.552;2022-09-09T01:54:09;1003.4081418476721;;;12.84906569266932;0
55014;BME280;40916;51.632;5.552;2022-09-09T01:55:09;1003.3600678855661;;;12.84906569266932;0
55014;BME280;40916;51.632;5.552;2022-09-09T01:56:11;1003.4624611244917;;;12.87576129289506;0
55014;BME280;40916;51.632;5.552;2022-09-09T01:57:11;1003.3958932926618;;;12.87576129289506;0
55014;BME280;40916;51.632;5.552;2022-09-09T01:58:13;1003.4254789908782;;;12.87576129289506;0
55014;BME280;40916;51.632;5.552;2022-09-09T01:59:17;1003.403289716493;;;12.87576129289506;0
55014;BME280;40916;51.632;5.552;2022-09-09T02:00:10;1003.4513664831425;;;12.87576129289506;0
55014;BME280;40916;51.632;5.552;2022-09-09T02:01:12;1003.4291772036973;;;12.87576129289506;0
55014;BME280;40916;51.632;5.552;2022-09-09T02:02:11;1003.3780339224553;;;12.882434222741537;0
55014;BME280;40916;51.632;5.552;2022-09-09T02:03:13;1003.4021101766953;;;12.90245068566491;0
55014;BME280;40916;51.632;5.552;2022-09-09T02:04:13;1003.356474140867;;;12.88910676474006;0
55014;BME280;40916;51.632;5.552;2022-09-09T02:05:13;1003.3947133243798;;;12.90245068566491;0
55014;BME280;40916;51.632;5.552;2022-09-09T02:06:13;1003.3318400991591;;;12.90245068566491;0
55014;BME280;40916;51.632;5.552;2022-09-09T02:07:14;1003.3151634384741;;;12.882434222741537;0
55014;BME280;40916;51.632;5.552;2022-09-09T02:08:11;1003.3392369473777;;;12.90245068566491;0
55014;BME280;40916;51.632;5.552;2022-09-09T02:09:11;1003.2985542881399;;;12.90245068566491;0
55014;BME280;40916;51.632;5.552;2022-09-09T02:10:12;1003.3207448277349;;;12.90245068566491;0
55014;BME280;40916;51.632;5.552;2022-09-09T02:11:11;1003.2800621751243;;;12.90245068566491;0
55014;BME280;40916;51.632;5.552;2022-09-09T02:12:13;1003.2455246653802;;;12.88910676474006;0
55014;BME280;40916;51.632;5.552;2022-09-09T02:13:12;1003.3176709396456;;;12.909122064826953;0
55014;BME280;40916;51.632;5.552;2022-09-09T02:14:12;1003.3059511341896;;;12.90245068566491;0
55014;BME280;40916;51.632;5.552;2022-09-09T02:15:13;1003.2264051674249;;;12.882434222741537;0
55014;BME280;40916;51.632;5.552;2022-09-09T02:16:12;1003.3083960215091;;;12.88910676474006;0
55014;BME280;40916;51.632;5.552;2022-09-09T02:17:12;1003.2220774713595;;;12.87576129289506;0
55014;BME280;40916;51.632;5.552;2022-09-09T02:18:12;1003.2849469930234;;;12.87576129289506;0
55014;BME280;40916;51.632;5.552;2022-09-09T02:19:13;1003.2688892118738;;;12.862414269186278;0
55014;BME280;40916;51.632;5.552;2022-09-09T02:20:12;1003.1727386395816;;;12.862414269186278;0
55014;BME280;40916;51.632;5.552;2022-09-09T02:21:14;1003.2547298518065;;;12.869087975082646;0
55014;BME280;40916;51.632;5.552;2022-09-09T02:22:12;1003.1714702308252;;;12.84906569266932;0
55014;BME280;40916;51.632;5.552;2022-09-09T02:23:12;1003.1751682210438;;;12.84906569266932;0
55014;BME280;40916;51.632;5.552;2022-09-09T02:24:12;1003.199257561072;;;12.869087975082646;0
55014;BME280;40916;51.632;5.552;2022-09-09T02:25:13;1003.1986253241105;;;12.862414269186278;0
55014;BME280;40916;51.632;5.552;2022-09-09T02:26:13;1003.1924918261536;;;12.87576129289506;0
55014;BME280;40916;51.632;5.552;2022-09-09T02:27:13;1003.1573130420985;;;12.855740175087874;0
55014;BME280;40916;51.632;5.552;2022-09-09T02:28:13;1003.13142674207;;;12.855740175087874;0
55014;BME280;40916;51.632;5.552;2022-09-09T02:29:13;1003.2282101136574;;;12.862414269186278;0
55014;BME280;40916;51.632;5.552;2022-09-09T02:30:13;1003.2103520170504;;;12.869087975082646;0
55014;BME280;40916;51.632;5.552;2022-09-09T02:31:13;1003.1579462510725;;;12.862414269186278;0
55014;BME280;40916;51.632;5.552;2022-09-09T02:32:14;1003.0685600380048;;;12.855740175087874;0
55014;BME280;40916;51.632;5.552;2022-09-09T02:33:13;1003.1240306574317;;;12.855740175087874;0
55014;BME280;40916;51.632;5.552;2022-09-09T02:34:13;1003.1758032600187;;;12.855740175087874;0
55014;BME280;40916;51.632;5.552;2022-09-09T02:35:14;1003.146218912792;;;12.855740175087874;0
55014;BME280;40916;51.632;5.552;2022-09-09T02:36:14;1003.1536149988759;;;12.855740175087874;0
55014;BME280;40916;51.632;5.552;2022-09-09T02:37:14;1003.206653864937;;;12.869087975082646;0
55014;BME280;40916;51.632;5.552;2022-09-09T02:38:14;1003.2306380887785;;;12.84906569266932;0
55014;BME280;40916;51.632;5.552;2022-09-09T02:39:14;1003.1979915254983;;;12.855740175087874;0
55014;BME280;40916;51.632;5.552;2022-09-09T02:40:14;1003.1825642018423;;;12.84906569266932;0
55014;BME280;40916;51.632;5.552;2022-09-09T02:41:14;1003.235606312249;;;12.862414269186278;0
55014;BME280;40916;51.632;5.552;2022-09-09T02:42:14;1003.1967192419214;;;12.842390821812444;0
55014;BME280;40916;51.632;5.552;2022-09-09T02:43:14;1003.1812892220995;;;12.835715562399027;0
55014;BME280;40916;51.632;5.552;2022-09-09T02:44:15;1003.2071744081389;;;12.835715562399027;0
55014;BME280;40916;51.632;5.552;2022-09-09T02:45:16;1003.2084501384321;;;12.84906569266932;0
55014;BME280;40916;51.632;5.552;2022-09-09T02:46:20;1003.2978387738251;;;12.855740175087874;0
55014;BME280;40916;51.632;5.552;2022-09-09T02:47:21;1003.2898059775708;;;12.84906569266932;0
55014;BME280;40916;51.632;5.552;2022-09-09T02:48:18;1003.3119939438185;;;12.84906569266932;0
55014;BME280;40916;51.632;5.552;2022-09-09T02:49:16;1003.2324190152135;;;12.829039914310808;0
55014;BME280;40916;51.632;5.552;2022-09-09T02:50:15;1003.1923828725365;;;12.835715562399027;0
55014;BME280;40916;51.632;5.552;2022-09-09T02:51:15;1003.2404553702912;;;12.835715562399027;0
55014;BME280;40916;51.632;5.552;2022-09-09T02:52:15;1003.2195441130632;;;12.84906569266932;0
55014;BME280;40916;51.632;5.552;2022-09-09T02:53:16;1003.1738934557437;;;12.835715562399027;0
55014;BME280;40916;51.632;5.552;2022-09-09T02:54:16;1003.2084501384321;;;12.84906569266932;0
55014;BME280;40916;51.632;5.552;2022-09-09T02:55:16;1003.2195441130632;;;12.84906569266932;0
55014;BME280;40916;51.632;5.552;2022-09-09T02:56:16;1003.2053876149552;;;12.855740175087874;0
55014;BME280;40916;51.632;5.552;2022-09-09T02:57:16;1003.2053876149552;;;12.855740175087874;0
55014;BME280;40916;51.632;5.552;2022-09-09T02:58:16;1003.2880132392586;;;12.869087975082646;0
55014;BME280;40916;51.632;5.552;2022-09-09T02:59:16;1003.3034380354333;;;12.87576129289506;0
55014;BME280;40916;51.632;5.552;2022-09-09T03:00:16;1003.2232421048478;;;12.84906569266932;0
55014;BME280;40916;51.632;5.552;2022-09-09T03:01:16;1003.347183729935;;;12.869087975082646;0
55014;BME280;40916;51.632;5.552;2022-09-09T03:02:16;1003.260858301242;;;12.855740175087874;0
55014;BME280;40916;51.632;5.552;2022-09-09T03:03:16;1003.2195441130632;;;12.84906569266932;0
55014;BME280;40916;51.632;5.552;2022-09-09T03:04:16;1003.2084501384321;;;12.84906569266932;0
55014;BME280;40916;51.632;5.552;2022-09-09T03:05:16;1003.2491280507134;;;12.84906569266932;0
55014;BME280;40916;51.632;5.552;2022-09-09T03:06:16;1003.212783704894;;;12.855740175087874;0
55014;BME280;40916;51.632;5.552;2022-09-09T03:07:16;1003.2275758862173;;;12.855740175087874;0
55014;BME280;40916;51.632;5.552;2022-09-09T03:08:16;1003.3515147597948;;;12.87576129289506;0
55014;BME280;40916;51.632;5.552;2022-09-09T03:09:16;1003.2577949109145;;;12.862414269186278;0
55014;BME280;40916;51.632;5.552;2022-09-09T03:10:17;1003.2701541612641;;;12.87576129289506;0
55014;BME280;40916;51.632;5.552;2022-09-09T03:11:17;1003.2997398267104;;;12.87576129289506;0
55014;BME280;40916;51.632;5.552;2022-09-09T03:12:17;1003.3373530170797;;;12.882434222741537;0
55014;BME280;40916;51.632;5.552;2022-09-09T03:13:17;1003.2763637528825;;;12.90245068566491;0
55014;BME280;40916;51.632;5.552;2022-09-09T03:14:17;1003.2504748005647;;;12.90245068566491;0
55014;BME280;40916;51.632;5.552;2022-09-09T03:15:17;1003.1641617856076;;;12.88910676474006;0
55014;BME280;40916;51.632;5.552;2022-09-09T03:16:17;1003.285007144673;;;12.915793056612472;0
55014;BME280;40916;51.632;5.552;2022-09-09T03:17:17;1003.2252090500468;;;12.909122064826953;0
55014;BME280;40916;51.632;5.552;2022-09-09T03:18:17;1003.2794678940426;;;12.935803708887033;0
55014;BME280;40916;51.632;5.552;2022-09-09T03:19:18;1003.1555586829656;;;12.915793056612472;0
55014;BME280;40916;51.632;5.552;2022-09-09T03:20:18;1003.2837827909719;;;12.942473152343368;0
55014;BME280;40916;51.632;5.552;2022-09-09T03:21:18;1003.2085761112473;;;12.929133878524844;0
55014;BME280;40916;51.632;5.552;2022-09-09T03:22:18;1003.2252166984865;;;12.949142209011395;0
55014;BME280;40916;51.632;5.552;2022-09-09T03:23:18;1003.1777439072956;;;12.955810879008613;0
55014;BME280;40916;51.632;5.552;2022-09-09T03:24:18;1003.2862320464134;;;12.969147059460393;0
55014;BME280;40916;51.632;5.552;2022-09-09T03:25:18;1003.190059179028;;;12.969147059460393;0
55014;BME280;40916;51.632;5.552;2022-09-09T03:26:18;1003.2628174291938;;;12.955810879008613;0
55014;BME280;40916;51.632;5.552;2022-09-09T03:27:18;1003.2289154939426;;;12.949142209011395;0
55014;BME280;40916;51.632;5.552;2022-09-09T03:28:18;1003.2172054228462;;;12.942473152343368;0
55014;BME280;40916;51.632;5.552;2022-09-09T03:29:18;1003.2320003901664;;;12.942473152343368;0
55014;BME280;40916;51.632;5.552;2022-09-09T03:30:18;1003.2782242589669;;;12.962479162452478;0
55014;BME280;40916;51.632;5.552;2022-09-09T03:31:18;1003.2813116815211;;;12.955810879008613;0
55014;BME280;40916;51.632;5.552;2022-09-09T03:32:19;1003.2572757557982;;;12.935803708887033;0
55014;BME280;40916;51.632;5.552;2022-09-09T03:33:19;1003.2042592792741;;;12.922463661139204;0
55014;BME280;40916;51.632;5.552;2022-09-09T03:34:19;1003.2381651887641;;;12.929133878524844;0
55014;BME280;40916;51.632;5.552;2022-09-09T03:35:19;1003.186384308171;;;12.929133878524844;0
55014;BME280;40916;51.632;5.552;2022-09-09T03:36:19;1003.3016600366253;;;12.935803708887033;0
55014;BME280;40916;51.632;5.552;2022-09-09T03:37:19;1003.2264507645183;;;12.922463661139204;0
55014;BME280;40916;51.632;5.552;2022-09-09T03:38:19;1003.3349482586339;;;12.935803708887033;0
55014;BME280;40916;51.632;5.552;2022-09-09T03:39:19;1003.301042004095;;;12.929133878524844;0
55014;BME280;40916;51.632;5.552;2022-09-09T03:40:19;1003.2412450904245;;;12.922463661139204;0
55014;BME280;40916;51.632;5.552;2022-09-09T03:41:19;1003.4009052529663;;;12.929133878524844;0
55014;BME280;40916;51.632;5.552;2022-09-09T03:42:20;1003.3824120521031;;;12.929133878524844;0
55014;BME280;40916;51.632;5.552;2022-09-09T03:43:20;1003.3189153330643;;;12.922463661139204;0
55014;BME280;40916;51.632;5.552;2022-09-09T03:44:20;1003.3361806145978;;;12.949142209011395;0
55014;BME280;40916;51.632;5.552;2022-09-09T03:45:20;1003.3589875741978;;;12.955810879008613;0
55014;BME280;40916;51.632;5.552;2022-09-09T03:46:21;1003.3552887209604;;;12.955810879008613;0
55014;BME280;40916;51.632;5.552;2022-09-09T03:47:20;1003.329396751673;;;12.955810879008613;0
55014;BME280;40916;51.632;5.552;2022-09-09T03:48:20;1003.2733010488175;;;12.949142209011395;0
55014;BME280;40916;51.632;5.552;2022-09-09T03:49:20;1003.341716430044;;;12.969147059460393;0
55014;BME280;40916;51.632;5.552;2022-09-09T03:50:20;1003.3614286622699;;;12.982481694637762;0
55014;BME280;40916;51.632;5.552;2022-09-09T03:51:21;1003.3466323931486;;;12.982481694637762;0
55014;BME280;40916;51.632;5.552;2022-09-09T03:52:21;1003.3700382214182;;;12.995814785479006;0
55014;BME280;40916;51.632;5.552;2022-09-09T03:53:23;1003.3330464788754;;;12.995814785479006;0
55014;BME280;40916;51.632;5.552;2022-09-09T03:54:21;1003.321948958463;;;12.995814785479006;0
55014;BME280;40916;51.632;5.552;2022-09-09T03:55:21;1003.3453484554301;;;13.00914633292166;0
55014;BME280;40916;51.632;5.552;2022-09-09T03:56:21;1003.3280497547859;;;13.022476337902496;0
55014;BME280;40916;51.632;5.552;2022-09-09T03:57:21;1003.38162834618;;;13.042468455305166;0
55014;BME280;40916;51.632;5.552;2022-09-09T03:58:21;1003.2565657438397;;;13.00914633292166;0
55014;BME280;40916;51.632;5.552;2022-09-09T03:59:21;1003.2220713235716;;;12.995814785479006;0
55014;BME280;40916;51.632;5.552;2022-09-09T04:00:21;1003.271362857616;;;13.00914633292166;0
55014;BME280;40916;51.632;5.552;2022-09-09T04:01:21;1003.3138485127793;;;13.029140762262266;0
55014;BME280;40916;51.632;5.552;2022-09-09T04:02:21;1003.2811478246408;;;13.035804801357529;0
55014;BME280;40916;51.632;5.552;2022-09-09T04:03:22;1003.2811478246408;;;13.035804801357529;0
55014;BME280;40916;51.632;5.552;2022-09-09T04:04:22;1003.2071579876038;;;13.035804801357529;0
55014;BME280;40916;51.632;5.552;2022-09-09T04:05:22;1003.1923600259832;;;13.035804801357529;0
55014;BME280;40916;51.632;5.552;2022-09-09T04:06:22;1003.2644230609892;;;13.055794608224865;0
55014;BME280;40916;51.632;5.552;2022-09-09T04:07:22;1003.190430024648;;;13.055794608224865;0
55014;BME280;40916;51.632;5.552;2022-09-09T04:08:22;1003.2169146825374;;;13.062457107430458;0
55014;BME280;40916;51.632;5.552;2022-09-09T04:09:22;1003.2175002319741;;;13.069119221955486;0
55014;BME280;40916;51.632;5.552;2022-09-09T04:10:22;1003.1509045987544;;;13.069119221955486;0
55014;BME280;40916;51.632;5.552;2022-09-09T04:11:22;1003.2519654730052;;;13.082442297430397;0
55014;BME280;40916;51.632;5.552;2022-09-09T04:12:23;1003.1779681653013;;;13.082442297430397;0
55014;BME280;40916;51.632;5.552;2022-09-09T04:13:23;1003.1748485569672;;;13.089103258613434;0
55014;BME280;40916;51.632;5.552;2022-09-09T04:14:23;1003.1446693925712;;;13.082442297430397;0
55014;BME280;40916;51.632;5.552;2022-09-09T04:15:23;1003.1347275885104;;;13.095763835582215;0